createdAt,value
2018-09-03T00:02:05.794Z,15.13
2018-09-03T00:04:34.391Z,15.18
2018-09-03T00:07:03.062Z,15.22
2018-09-03T00:09:46.481Z,15.27
2018-09-03T00:12:15.169Z,15.33
2018-09-03T00:14:43.903Z,15.35
2018-09-03T00:17:12.708Z,15.37
2018-09-03T00:19:41.524Z,15.40
2018-09-03T00:22:10.317Z,15.45
2018-09-03T00:24:39.058Z,15.53
2018-09-03T00:27:07.923Z,15.54
2018-09-03T00:29:36.588Z,15.45
2018-09-03T00:32:10.888Z,15.45
2018-09-03T00:34:45.273Z,15.58
2018-09-03T00:37:19.353Z,15.53
2018-09-03T00:39:53.452Z,15.55
2018-09-03T00:42:27.637Z,15.50
2018-09-03T00:45:01.952Z,15.42
2018-09-03T00:47:30.620Z,15.38
2018-09-03T00:49:59.379Z,15.40
2018-09-03T00:52:28.044Z,15.39
2018-09-03T00:54:56.826Z,15.28
2018-09-03T00:57:25.723Z,15.30
2018-09-03T00:59:54.509Z,15.30
2018-09-03T01:02:23.291Z,15.31
2018-09-03T01:04:52.238Z,15.32
2018-09-03T01:07:21.127Z,15.32
2018-09-03T01:09:49.824Z,15.54
2018-09-03T01:12:18.526Z,15.32
2018-09-03T01:14:47.211Z,15.24
2018-09-03T01:17:15.946Z,15.22
2018-09-03T01:19:44.536Z,15.15
2018-09-03T01:22:13.133Z,15.13
2018-09-03T01:24:41.793Z,15.08
2018-09-03T01:27:10.431Z,15.09
2018-09-03T01:29:39.145Z,15.10
2018-09-03T01:32:07.855Z,15.16
2018-09-03T01:34:36.695Z,15.17
2018-09-03T01:37:05.557Z,15.17
2018-09-03T01:39:34.272Z,15.18
2018-09-03T01:42:03.087Z,15.25
2018-09-03T01:44:31.783Z,15.30
2018-09-03T01:47:00.403Z,15.32
2018-09-03T01:49:28.978Z,15.41
2018-09-03T01:51:57.574Z,15.46
2018-09-03T01:54:26.215Z,15.36
2018-09-03T01:56:54.903Z,15.34
2018-09-03T01:59:23.597Z,15.34
2018-09-03T02:01:52.276Z,15.36
2018-09-03T02:04:20.990Z,15.36
2018-09-03T02:06:49.785Z,15.36
2018-09-03T02:09:19.357Z,15.37
2018-09-03T02:11:48.158Z,15.37
2018-09-03T02:14:16.825Z,15.44
2018-09-03T02:16:45.526Z,15.46
2018-09-03T02:19:14.205Z,15.53
2018-09-03T02:21:42.908Z,15.63
2018-09-03T02:24:11.578Z,15.61
2018-09-03T02:26:40.373Z,15.56
2018-09-03T02:29:08.990Z,15.62
2018-09-03T02:31:37.607Z,15.59
2018-09-03T02:34:06.284Z,15.55
2018-09-03T02:36:34.883Z,15.58
2018-09-03T02:39:04.148Z,15.60
2018-09-03T02:41:32.841Z,15.61
2018-09-03T02:44:01.543Z,15.57
2018-09-03T02:46:30.228Z,15.55
2018-09-03T02:48:58.905Z,15.57
2018-09-03T02:51:27.581Z,15.62
2018-09-03T02:53:56.371Z,15.70
2018-09-03T02:56:25.056Z,15.70
2018-09-03T02:58:53.735Z,15.66
2018-09-03T03:01:22.419Z,15.58
2018-09-03T03:03:51.139Z,15.56
2018-09-03T03:06:19.905Z,15.57
2018-09-03T03:08:48.648Z,15.60
2018-09-03T03:11:17.456Z,15.63
2018-09-03T03:13:46.147Z,15.65
2018-09-03T03:16:14.843Z,15.67
2018-09-03T03:18:43.605Z,15.58
2018-09-03T03:21:16.508Z,15.54
2018-09-03T03:23:46.201Z,15.55
2018-09-03T03:26:14.863Z,15.60
2018-09-03T03:28:43.536Z,15.60
2018-09-03T03:31:12.216Z,15.51
2018-09-03T03:33:40.981Z,15.45
2018-09-03T03:36:09.577Z,15.42
2018-09-03T03:38:38.143Z,15.43
2018-09-03T03:41:06.810Z,15.40
2018-09-03T03:43:35.544Z,15.41
2018-09-03T03:46:04.352Z,15.41
2018-09-03T03:48:33.131Z,15.43
2018-09-03T03:51:01.758Z,15.43
2018-09-03T03:53:30.451Z,15.44
2018-09-03T03:55:58.988Z,15.39
2018-09-03T03:58:27.688Z,15.46
2018-09-03T04:00:56.398Z,15.33
2018-09-03T04:03:25.123Z,15.24
2018-09-03T04:05:53.816Z,15.20
2018-09-03T04:08:22.605Z,15.21
2018-09-03T04:10:51.320Z,15.19
2018-09-03T04:13:19.913Z,15.18
2018-09-03T04:15:48.506Z,15.17
2018-09-03T04:18:17.076Z,15.15
2018-09-03T04:20:45.663Z,15.16
2018-09-03T04:23:14.477Z,15.18
2018-09-03T04:25:42.931Z,15.21
2018-09-03T04:28:11.668Z,15.29
2018-09-03T04:30:40.355Z,15.36
2018-09-03T04:33:08.993Z,15.43
2018-09-03T04:35:37.589Z,15.45
2018-09-03T04:38:06.218Z,15.46
2018-09-03T04:40:34.896Z,15.44
2018-09-03T04:43:03.477Z,15.43
2018-09-03T04:45:32.087Z,15.47
2018-09-03T04:48:00.781Z,15.52
2018-09-03T04:50:29.357Z,15.47
2018-09-03T04:52:58.054Z,15.46
2018-09-03T04:55:26.813Z,15.43
2018-09-03T04:57:55.566Z,15.36
2018-09-03T05:00:24.297Z,15.38
2018-09-03T05:02:53.047Z,15.38
2018-09-03T05:05:21.795Z,15.41
2018-09-03T05:07:50.506Z,15.46
2018-09-03T05:10:19.281Z,15.49
2018-09-03T05:12:49.231Z,15.49
2018-09-03T05:15:18.011Z,15.49
2018-09-03T05:17:46.871Z,15.50
2018-09-03T05:20:15.661Z,15.50
2018-09-03T05:22:44.425Z,15.51
2018-09-03T05:25:13.226Z,15.57
2018-09-03T05:27:41.926Z,15.67
2018-09-03T05:30:10.664Z,15.73
2018-09-03T05:32:39.393Z,15.77
2018-09-03T05:35:08.086Z,15.80
2018-09-03T05:37:36.695Z,15.83
2018-09-03T05:40:05.441Z,15.84
2018-09-03T05:42:34.032Z,15.81
2018-09-03T05:45:02.786Z,15.87
2018-09-03T05:47:31.589Z,15.85
2018-09-03T05:50:00.331Z,15.86
2018-09-03T05:52:29.127Z,15.93
2018-09-03T05:54:57.766Z,15.91
2018-09-03T05:57:26.376Z,15.95
2018-09-03T05:59:54.974Z,16.00
2018-09-03T06:02:23.686Z,16.07
2018-09-03T06:04:52.400Z,16.20
2018-09-03T06:07:21.004Z,16.30
2018-09-03T06:09:49.596Z,16.43
2018-09-03T06:12:18.255Z,16.41
2018-09-03T06:14:46.848Z,16.47
2018-09-03T06:17:15.583Z,16.40
2018-09-03T06:19:44.328Z,16.45
2018-09-03T06:22:13.592Z,16.47
2018-09-03T06:24:42.305Z,16.65
2018-09-03T06:27:11.194Z,16.71
2018-09-03T06:29:39.925Z,16.76
2018-09-03T06:32:08.628Z,15.64
2018-09-03T06:34:37.353Z,16.88
2018-09-03T06:37:06.707Z,17.13
2018-09-03T06:39:35.439Z,17.18
2018-09-03T06:42:04.287Z,17.36
2018-09-03T06:44:33.123Z,17.45
2018-09-03T06:47:02.027Z,17.48
2018-09-03T06:49:30.763Z,17.43
2018-09-03T06:51:59.486Z,17.62
2018-09-03T06:54:28.376Z,17.80
2018-09-03T06:56:57.274Z,17.95
2018-09-03T06:59:25.981Z,18.06
2018-09-03T07:01:54.603Z,18.52
2018-09-03T07:04:23.261Z,18.61
2018-09-03T07:06:51.948Z,18.68
2018-09-03T07:09:20.548Z,18.68
2018-09-03T07:11:49.804Z,18.85
2018-09-03T07:14:18.428Z,18.98
2018-09-03T07:16:47.105Z,19.21
2018-09-03T07:19:15.858Z,19.63
2018-09-03T07:21:44.588Z,19.58
2018-09-03T07:24:14.768Z,19.62
2018-09-03T07:26:43.655Z,19.65
2018-09-03T07:29:12.325Z,19.81
2018-09-03T07:31:40.963Z,19.79
2018-09-03T07:34:09.640Z,20.22
2018-09-03T07:36:38.314Z,20.49
2018-09-03T07:39:08.324Z,20.52
2018-09-03T07:41:37.230Z,20.59
2018-09-03T07:44:06.102Z,20.75
2018-09-03T07:46:34.991Z,20.55
2018-09-03T07:49:03.737Z,20.60
2018-09-03T07:51:32.399Z,20.64
2018-09-03T07:54:01.013Z,20.78
2018-09-03T07:56:29.657Z,21.15
2018-09-03T07:58:58.991Z,21.52
2018-09-03T08:01:27.766Z,21.82
2018-09-03T08:03:56.558Z,21.83
2018-09-03T08:06:25.458Z,22.14
2018-09-03T08:08:54.238Z,22.34
2018-09-03T08:11:23.031Z,22.56
2018-09-03T08:13:51.756Z,22.95
2018-09-03T08:16:20.604Z,23.41
2018-09-03T08:18:49.578Z,23.64
2018-09-03T08:21:18.199Z,24.11
2018-09-03T08:23:46.834Z,23.88
2018-09-03T08:26:15.749Z,24.00
2018-09-03T08:28:44.374Z,24.15
2018-09-03T08:31:13.531Z,24.44
2018-09-03T08:33:42.261Z,24.55
2018-09-03T08:36:11.284Z,25.08
2018-09-03T08:38:40.058Z,25.56
2018-09-03T08:41:08.904Z,25.79
2018-09-03T08:43:37.596Z,26.21
2018-09-03T08:46:06.286Z,25.74
2018-09-03T08:48:34.989Z,25.54
2018-09-03T08:51:03.741Z,25.39
2018-09-03T08:53:32.514Z,25.54
2018-09-03T08:56:01.249Z,26.21
2018-09-03T08:58:29.974Z,26.49
2018-09-03T09:00:58.732Z,26.69
2018-09-03T09:03:32.904Z,26.82
2018-09-03T09:06:01.647Z,27.09
2018-09-03T09:08:30.459Z,26.84
2018-09-03T09:10:59.219Z,27.33
2018-09-03T09:13:27.856Z,27.46
2018-09-03T09:15:56.473Z,27.26
2018-09-03T09:18:25.099Z,27.44
2018-09-03T09:20:53.779Z,27.65
2018-09-03T09:23:22.569Z,27.54
2018-09-03T09:25:51.319Z,27.96
2018-09-03T09:28:20.122Z,27.95
2018-09-03T09:30:48.913Z,27.89
2018-09-03T09:33:17.614Z,28.52
2018-09-03T09:35:46.314Z,27.91
2018-09-03T09:38:14.972Z,28.28
2018-09-03T09:40:43.646Z,28.66
2018-09-03T09:43:12.418Z,28.82
2018-09-03T09:45:41.109Z,28.47
2018-09-03T09:48:10.611Z,28.94
2018-09-03T09:50:39.273Z,29.72
2018-09-03T09:53:08.003Z,29.59
2018-09-03T09:55:36.796Z,28.92
2018-09-03T09:58:05.593Z,29.11
2018-09-03T10:00:40.089Z,29.30
2018-09-03T10:03:08.859Z,29.87
2018-09-03T10:05:38.463Z,29.14
2018-09-03T10:08:07.211Z,29.24
2018-09-03T10:10:35.879Z,29.18
2018-09-03T10:13:04.563Z,29.13
2018-09-03T10:15:33.238Z,29.33
2018-09-03T10:18:01.853Z,29.58
2018-09-03T10:20:30.526Z,29.97
2018-09-03T10:22:59.265Z,30.57
2018-09-03T10:25:27.995Z,30.77
2018-09-03T10:27:56.731Z,30.53
2018-09-03T10:30:25.456Z,30.68
2018-09-03T10:32:54.306Z,29.81
2018-09-03T10:35:23.076Z,30.40
2018-09-03T10:37:51.837Z,31.19
2018-09-03T10:40:20.579Z,31.15
2018-09-03T10:42:49.346Z,30.17
2018-09-03T10:45:17.993Z,29.36
2018-09-03T10:47:46.697Z,29.65
2018-09-03T10:50:16.139Z,29.93
2018-09-03T10:52:45.003Z,29.13
2018-09-03T10:55:13.769Z,28.92
2018-09-03T10:57:42.784Z,29.49
2018-09-03T11:00:11.644Z,29.39
2018-09-03T11:02:40.368Z,30.21
2018-09-03T11:05:09.040Z,30.05
2018-09-03T11:07:37.796Z,29.30
2018-09-03T11:10:06.853Z,28.13
2018-09-03T11:12:35.841Z,27.45
2018-09-03T11:15:06.153Z,27.73
2018-09-03T11:17:34.886Z,27.83
2018-09-03T11:20:06.373Z,28.05
2018-09-03T11:22:35.223Z,27.80
2018-09-03T11:25:04.079Z,27.42
2018-09-03T11:27:32.935Z,27.76
2018-09-03T11:30:01.727Z,28.98
2018-09-03T11:32:30.591Z,30.45
2018-09-03T11:34:59.467Z,31.31
2018-09-03T11:37:28.212Z,30.63
2018-09-03T11:39:56.916Z,29.66
2018-09-03T11:42:25.586Z,28.91
2018-09-03T11:44:54.285Z,28.42
2018-09-03T11:47:22.941Z,28.22
2018-09-03T11:49:51.767Z,27.99
2018-09-03T11:52:20.475Z,27.90
2018-09-03T11:54:49.201Z,28.04
2018-09-03T11:57:17.969Z,28.07
2018-09-03T11:59:46.632Z,27.65
2018-09-03T12:02:15.242Z,27.45
2018-09-03T12:04:43.834Z,26.12
2018-09-03T12:07:12.656Z,25.27
2018-09-03T12:09:41.296Z,24.19
2018-09-03T12:12:09.962Z,23.27
2018-09-03T12:14:42.216Z,22.45
2018-09-03T12:17:11.128Z,21.84
2018-09-03T12:19:39.854Z,21.14
2018-09-03T12:22:09.284Z,20.94
2018-09-03T12:24:38.310Z,20.73
2018-09-03T12:27:07.103Z,20.78
2018-09-03T12:29:35.883Z,20.69
2018-09-03T12:32:05.679Z,20.72
2018-09-03T12:34:34.470Z,20.74
2018-09-03T12:37:03.366Z,20.63
2018-09-03T12:39:32.159Z,20.56
2018-09-03T12:42:00.987Z,20.46
2018-09-03T12:44:29.779Z,20.62
2018-09-03T12:46:59.579Z,20.61
2018-09-03T12:49:28.250Z,20.78
2018-09-03T12:51:56.986Z,20.81
2018-09-03T12:54:26.264Z,20.81
2018-09-03T12:56:55.057Z,20.81
2018-09-03T12:59:24.812Z,20.86
2018-09-03T13:01:53.454Z,21.15
2018-09-03T13:04:22.173Z,21.51
2018-09-03T13:06:51.136Z,21.68
2018-09-03T13:09:19.799Z,21.92
2018-09-03T13:11:48.396Z,22.01
2018-09-03T13:14:17.018Z,22.08
2018-09-03T13:16:45.630Z,22.04
2018-09-03T13:19:14.511Z,22.02
2018-09-03T13:21:43.220Z,22.02
2018-09-03T13:24:11.980Z,22.13
2018-09-03T13:26:40.766Z,22.14
2018-09-03T13:29:12.779Z,22.22
2018-09-03T13:31:41.464Z,22.51
2018-09-03T13:34:10.269Z,22.80
2018-09-03T13:36:39.052Z,23.08
2018-09-03T13:39:10.559Z,23.30
2018-09-03T13:41:39.318Z,23.72
2018-09-03T13:44:08.101Z,24.45
2018-09-03T13:46:36.755Z,25.00
2018-09-03T13:49:05.522Z,25.44
2018-09-03T13:51:34.371Z,26.18
2018-09-03T13:54:03.148Z,26.76
2018-09-03T13:56:32.159Z,27.69
2018-09-03T13:59:01.028Z,28.03
2018-09-03T14:01:29.851Z,27.39
2018-09-03T14:03:58.608Z,27.62
2018-09-03T14:06:27.471Z,28.79
2018-09-03T14:08:56.301Z,29.45
2018-09-03T14:11:25.000Z,29.28
2018-09-03T14:13:53.731Z,29.53
2018-09-03T14:16:22.891Z,30.22
2018-09-03T14:18:51.969Z,30.10
2018-09-03T14:21:22.246Z,29.65
2018-09-03T14:23:51.166Z,28.28
2018-09-03T14:26:19.983Z,27.23
2018-09-03T14:28:48.825Z,26.24
2018-09-03T14:31:17.691Z,25.80
2018-09-03T14:33:47.450Z,25.54
2018-09-03T14:36:16.382Z,25.50
2018-09-03T14:38:45.194Z,25.43
2018-09-03T14:41:13.947Z,25.81
2018-09-03T14:43:42.907Z,25.74
2018-09-03T14:46:12.509Z,25.89
2018-09-03T14:48:41.400Z,25.92
2018-09-03T14:51:10.180Z,26.11
2018-09-03T14:53:39.349Z,26.39
2018-09-03T14:56:08.537Z,26.57
2018-09-03T14:58:37.266Z,26.29
2018-09-03T15:01:06.010Z,26.10
2018-09-03T15:03:35.019Z,25.81
2018-09-03T15:06:03.679Z,25.68
2018-09-03T15:08:32.450Z,25.53
2018-09-03T15:11:01.188Z,25.52
2018-09-03T15:13:30.046Z,25.49
2018-09-03T15:15:58.854Z,25.40
2018-09-03T15:18:27.581Z,25.27
2018-09-03T15:20:56.239Z,25.33
2018-09-03T15:23:25.178Z,25.38
2018-09-03T15:25:53.872Z,25.38
2018-09-03T15:28:22.521Z,25.60
2018-09-03T15:30:51.153Z,25.77
2018-09-03T15:33:19.866Z,25.49
2018-09-03T15:35:48.463Z,25.49
2018-09-03T15:38:17.159Z,25.28
2018-09-03T15:40:46.211Z,25.18
2018-09-03T15:43:15.106Z,25.06
2018-09-03T15:45:43.944Z,25.19
2018-09-03T15:48:12.763Z,24.99
2018-09-03T15:50:41.663Z,25.16
2018-09-03T15:53:10.584Z,25.33
2018-09-03T15:55:39.413Z,25.19
2018-09-03T15:58:08.166Z,25.04
2018-09-03T16:00:36.813Z,25.57
2018-09-03T16:03:05.573Z,26.60
2018-09-03T16:05:34.178Z,27.01
2018-09-03T16:08:02.884Z,26.79
2018-09-03T16:10:31.551Z,26.13
2018-09-03T16:13:00.204Z,25.98
2018-09-03T16:15:28.807Z,25.52
2018-09-03T16:17:57.775Z,25.17
2018-09-03T16:20:26.636Z,24.92
2018-09-03T16:22:55.407Z,24.58
2018-09-03T16:25:24.165Z,24.38
2018-09-03T16:27:52.865Z,24.21
2018-09-03T16:30:21.502Z,24.07
2018-09-03T16:32:50.150Z,23.99
2018-09-03T16:35:18.855Z,23.86
2018-09-03T16:37:47.652Z,23.80
2018-09-03T16:40:16.402Z,23.70
2018-09-03T16:42:45.652Z,23.74
2018-09-03T16:45:14.362Z,23.64
2018-09-03T16:47:43.114Z,23.51
2018-09-03T16:50:11.872Z,23.44
2018-09-03T16:52:40.514Z,23.30
2018-09-03T16:55:09.798Z,23.23
2018-09-03T16:57:38.436Z,23.17
2018-09-03T17:00:07.221Z,23.04
2018-09-03T17:02:35.872Z,22.96
2018-09-03T17:05:04.751Z,22.84
2018-09-03T17:07:33.614Z,22.73
2018-09-03T17:10:02.544Z,22.70
2018-09-03T17:12:31.282Z,22.68
2018-09-03T17:14:59.893Z,22.72
2018-09-03T17:17:29.178Z,22.61
2018-09-03T17:19:57.911Z,22.55
2018-09-03T17:22:26.841Z,22.50
2018-09-03T17:24:55.729Z,22.40
2018-09-03T17:27:24.524Z,22.33
2018-09-03T17:29:53.501Z,22.39
2018-09-03T17:32:23.204Z,22.56
2018-09-03T17:34:52.170Z,22.61
2018-09-03T17:37:21.246Z,22.63
2018-09-03T17:39:50.180Z,22.40
2018-09-03T17:42:19.147Z,22.15
2018-09-03T17:44:48.624Z,21.96
2018-09-03T17:47:17.359Z,21.82
2018-09-03T17:49:46.109Z,21.68
2018-09-03T17:52:14.786Z,21.61
2018-09-03T17:54:43.911Z,21.52
2018-09-03T17:57:12.956Z,21.39
2018-09-03T17:59:42.542Z,21.31
2018-09-03T18:02:12.303Z,21.26
2018-09-03T18:04:41.034Z,21.17
2018-09-03T18:07:10.351Z,21.14
2018-09-03T18:09:39.126Z,21.10
2018-09-03T18:12:08.339Z,21.02
2018-09-03T18:14:38.952Z,20.94
2018-09-03T18:17:07.941Z,20.90
2018-09-03T18:19:37.174Z,20.80
2018-09-03T18:22:05.947Z,20.69
2018-09-03T18:24:35.230Z,20.59
2018-09-03T18:27:04.271Z,20.53
2018-09-03T18:29:33.332Z,20.45
2018-09-03T18:32:02.314Z,20.61
2018-09-03T18:34:31.157Z,20.46
2018-09-03T18:37:00.005Z,20.39
2018-09-03T18:39:28.806Z,20.33
2018-09-03T18:41:58.265Z,20.22
2018-09-03T18:44:27.099Z,20.21
2018-09-03T18:46:56.216Z,20.11
2018-09-03T18:49:25.025Z,20.02
2018-09-03T18:51:53.984Z,20.07
2018-09-03T18:54:22.836Z,20.04
2018-09-03T18:56:51.652Z,19.96
2018-09-03T18:59:20.504Z,19.94
2018-09-03T19:01:49.259Z,19.88
2018-09-03T19:04:18.386Z,19.83
2018-09-03T19:06:47.179Z,19.79
2018-09-03T19:09:15.885Z,19.67
2018-09-03T19:11:44.639Z,19.63
2018-09-03T19:14:14.006Z,19.60
2018-09-03T19:16:43.156Z,19.54
2018-09-03T19:19:13.464Z,19.46
2018-09-03T19:21:42.770Z,19.41
2018-09-03T19:24:11.987Z,19.43
2018-09-03T19:26:40.834Z,19.37
2018-09-03T19:29:10.063Z,19.33
2018-09-03T19:31:39.031Z,19.33
2018-09-03T19:34:07.923Z,19.32
2018-09-03T19:36:37.985Z,19.35
2018-09-03T19:39:07.108Z,19.34
2018-09-03T19:41:36.011Z,19.33
2018-09-03T19:44:04.864Z,19.33
2018-09-03T19:46:33.703Z,19.24
2018-09-03T19:49:02.502Z,19.18
2018-09-03T19:51:31.195Z,19.08
2018-09-03T19:53:59.948Z,19.06
2018-09-03T19:56:28.707Z,18.95
2018-09-03T19:58:57.930Z,18.82
2018-09-03T20:01:26.722Z,18.83
2018-09-03T20:03:56.124Z,18.74
2018-09-03T20:06:24.940Z,18.95
2018-09-03T20:08:53.753Z,19.05
2018-09-03T20:11:22.496Z,19.15
2018-09-03T20:13:51.283Z,19.06
2018-09-03T20:16:20.052Z,18.82
2018-09-03T20:18:48.926Z,18.67
2018-09-03T20:21:17.696Z,18.67
2018-09-03T20:23:47.500Z,18.68
2018-09-03T20:26:16.569Z,18.61
2018-09-03T20:28:45.783Z,18.54
2018-09-03T20:31:16.039Z,18.43
2018-09-03T20:33:44.848Z,18.28
2018-09-03T20:36:14.105Z,18.15
2018-09-03T20:38:43.117Z,18.09
2018-09-03T20:41:12.423Z,18.04
2018-09-03T20:43:41.124Z,17.95
2018-09-03T20:46:09.973Z,17.89
2018-09-03T20:48:38.860Z,17.82
2018-09-03T20:51:08.220Z,16.77
2018-09-03T20:53:36.850Z,17.82
2018-09-03T20:56:06.385Z,17.79
2018-09-03T20:58:35.145Z,17.81
2018-09-03T21:01:03.985Z,17.79
2018-09-03T21:03:32.812Z,17.73
2018-09-03T21:06:01.538Z,17.69
2018-09-03T21:08:30.319Z,17.68
2018-09-03T21:10:58.978Z,17.62
2018-09-03T21:13:27.628Z,17.60
2018-09-03T21:15:56.384Z,17.51
2018-09-03T21:18:25.206Z,17.47
2018-09-03T21:20:54.045Z,17.43
2018-09-03T21:23:22.789Z,17.73
2018-09-03T21:25:51.503Z,17.78
2018-09-03T21:28:20.296Z,17.79
2018-09-03T21:30:49.072Z,17.78
2018-09-03T21:33:17.851Z,17.78
2018-09-03T21:35:46.651Z,17.72
2018-09-03T21:38:15.426Z,17.64
2018-09-03T21:40:44.349Z,17.80
2018-09-03T21:43:13.155Z,17.78
2018-09-03T21:45:42.669Z,17.65
2018-09-03T21:48:11.491Z,17.57
2018-09-03T21:50:40.473Z,17.53
2018-09-03T21:53:09.269Z,17.50
2018-09-03T21:55:38.337Z,17.44
2018-09-03T21:58:07.391Z,17.43
2018-09-03T22:00:37.326Z,17.40
2018-09-03T22:03:06.816Z,17.14
2018-09-03T22:05:35.484Z,16.97
2018-09-03T22:08:05.156Z,16.78
2018-09-03T22:10:34.459Z,16.76
2018-09-03T22:13:03.128Z,16.79
2018-09-03T22:15:32.301Z,17.15
2018-09-03T22:18:00.926Z,17.14
2018-09-03T22:20:29.663Z,17.19
2018-09-03T22:22:58.378Z,17.13
2018-09-03T22:25:27.087Z,17.14
2018-09-03T22:27:55.743Z,17.18
2018-09-03T22:30:24.498Z,17.22
2018-09-03T22:32:53.323Z,17.26
2018-09-03T22:35:22.599Z,17.32
2018-09-03T22:37:51.822Z,17.39
2018-09-03T22:40:20.596Z,17.37
2018-09-03T22:42:49.382Z,17.41
2018-09-03T22:45:18.993Z,17.39
2018-09-03T22:47:48.326Z,17.44
2018-09-03T22:50:17.721Z,17.47
2018-09-03T22:52:46.426Z,17.48
2018-09-03T22:55:15.176Z,17.53
2018-09-03T22:57:43.946Z,17.62
2018-09-03T23:00:12.846Z,17.61
2018-09-03T23:02:45.466Z,17.55
2018-09-03T23:05:14.436Z,17.44
2018-09-03T23:07:43.341Z,17.43
2018-09-03T23:10:12.241Z,17.44
2018-09-03T23:12:41.078Z,17.48
2018-09-03T23:15:10.154Z,17.47
2018-09-03T23:17:38.959Z,17.49
2018-09-03T23:20:07.851Z,17.55
2018-09-03T23:22:36.704Z,17.51
2018-09-03T23:25:05.711Z,17.44
2018-09-03T23:27:34.508Z,17.46
2018-09-03T23:30:03.500Z,17.38
2018-09-03T23:32:32.450Z,17.45
2018-09-03T23:35:01.346Z,17.48
2018-09-03T23:37:30.226Z,17.60
2018-09-03T23:39:59.051Z,17.55
2018-09-03T23:42:27.858Z,17.59
2018-09-03T23:44:56.739Z,17.60
2018-09-03T23:47:25.676Z,17.61
2018-09-03T23:49:54.567Z,17.64
2018-09-03T23:52:23.581Z,17.66
2018-09-03T23:54:52.503Z,17.66
2018-09-03T23:57:21.324Z,17.69
2018-09-03T23:59:50.161Z,17.71
